DABS

Details ICAO DABS (TEE)
Name CHEIKH LARBI TEBESSI
Region Algeria
Timezone Africa/Algiers (UTC+1.0)
Plans Departing 9
Arriving 15
Stats Elevation 2,661 ft / 811 m (AMSL)
Location 35.431610° 8.120716°
Runways 2
Magnetic Variation 1.967° E
Sunrise 2017-12-13 06:29:20 UTC / 2017-12-13 07:29:20 Local
Sunset 2017-12-13 16:16:55 UTC / 2017-12-13 17:16:55 Local
Advertisement - Login to hide

Runways

ID Width Length Bearing (true) Bearing (mag) Surface Threshold Offset Overrun Length
11 148 ft / 45 m 9,850 ft / 3,002 m 112.75° 110.78° Asphalt 0 ft / 0 m 345 ft / 105 m
12 98 ft / 30 m 7,867 ft / 2,398 m 121.86° 119.89° Asphalt 0 ft / 0 m 0 ft / 0 m
29 148 ft / 45 m 9,850 ft / 3,002 m 292.76° 290.79° Asphalt 0 ft / 0 m 345 ft / 105 m
30 98 ft / 30 m 7,867 ft / 2,398 m 301.88° 299.91° Asphalt 0 ft / 0 m 0 ft / 0 m

Map

Weather


0- 5 10 15 20 25 30 35+ Temperature / ° C

Clouds and Precipitation
Forecast for 2017-12-13 12:00 UTC. Updated 2 hours ago

Ground ~20,000 ft ~40,000 ft Winds

METAR

Not found

TAF

TAF DABS 130500Z 1306/1406 22006KT 9999 FEW040 SCT100 BECMG 1412/1414 32010KT PROB40 TEMPO 1400/1406 1500 BR FEW010

Frequencies

Tower 118.10 MHz TEBESSA TWR
Tower 119.70 MHz TEBESSA TWR
Warning: Do not use this data for real-world aviation or navigation. No guarantee of current accuracy is given.